createdAt,value
2017-05-25T08:28:48.844Z,54.72
2017-05-25T08:29:50.500Z,55.88
2017-05-25T08:30:52.441Z,54.82
2017-05-25T08:31:54.333Z,54.56
2017-05-25T08:32:56.273Z,55.43
2017-05-25T08:33:58.302Z,54.36
2017-05-25T08:35:00.331Z,54.56
2017-05-25T08:36:02.122Z,54.94
2017-05-25T08:37:04.052Z,53.69
2017-05-25T08:38:06.289Z,54.94
2017-05-25T08:39:08.129Z,55.07
2017-05-25T08:40:10.092Z,54.97
2017-05-25T08:41:12.062Z,54.39
2017-05-25T08:42:14.001Z,55.35
2017-05-25T08:43:15.954Z,52.18
2017-05-25T08:44:17.964Z,51.34
2017-05-25T08:45:19.996Z,51.82
2017-05-25T08:46:21.845Z,50.57
2017-05-25T08:47:23.846Z,50.49
2017-05-25T08:48:25.701Z,52.04
2017-05-25T08:49:27.677Z,51.46
2017-05-25T08:50:29.681Z,51.36
2017-05-25T08:51:31.744Z,51.07
2017-05-25T08:52:33.576Z,50.52
2017-05-25T08:53:35.772Z,49.24
2017-05-25T08:54:37.599Z,48.79
2017-05-25T08:55:39.746Z,47.72
2017-05-25T08:56:42.009Z,46.47
2017-05-25T08:57:44.226Z,48.01
2017-05-25T08:58:46.067Z,47.24
2017-05-25T08:59:48.018Z,47.05
2017-05-25T09:00:50.181Z,48.59
2017-05-25T09:01:52.316Z,48.01
2017-05-25T09:02:54.200Z,48.71
2017-05-25T09:03:56.222Z,47.75
2017-05-25T09:04:58.246Z,45.89
2017-05-25T09:06:00.299Z,45.72
2017-05-25T09:07:03.585Z,46.40
2017-05-25T09:08:05.733Z,48.33
2017-05-25T09:09:07.705Z,46.11
2017-05-25T09:10:09.797Z,46.01
2017-05-25T09:11:11.976Z,47.58
2017-05-25T09:12:13.906Z,47.77
2017-05-25T09:13:16.051Z,46.71
2017-05-25T09:14:18.023Z,45.55
2017-05-25T09:15:19.987Z,46.23
2017-05-25T09:16:22.121Z,45.45
2017-05-25T09:17:24.308Z,46.34
2017-05-25T09:18:26.777Z,48.93
2017-05-25T09:19:29.026Z,49.32
2017-05-25T09:20:31.314Z,48.44
2017-05-25T09:21:33.188Z,46.81
2017-05-25T09:22:35.351Z,45.45
2017-05-25T09:23:37.363Z,45.57
2017-05-25T09:24:39.426Z,47.02
2017-05-25T09:25:41.579Z,47.02
2017-05-25T09:26:43.655Z,44.22
2017-05-25T09:27:45.791Z,44.12
2017-05-25T09:28:47.803Z,45.31
2017-05-25T09:29:49.848Z,44.82
2017-05-25T09:30:51.998Z,44.73
2017-05-25T09:31:54.201Z,45.31
2017-05-25T09:32:56.110Z,48.79
2017-05-25T09:33:58.145Z,46.20
2017-05-25T09:35:00.025Z,44.15
2017-05-25T09:36:02.052Z,43.88
2017-05-25T09:37:03.893Z,45.33
2017-05-25T09:38:05.973Z,45.62
2017-05-25T09:39:08.190Z,45.69
2017-05-25T09:40:10.517Z,47.05
2017-05-25T09:41:12.553Z,45.31
2017-05-25T09:42:15.005Z,46.17
2017-05-25T09:43:17.496Z,45.40
2017-05-25T09:44:19.566Z,44.65
2017-05-25T09:45:21.682Z,42.91
2017-05-25T09:46:23.897Z,44.56
2017-05-25T09:47:26.153Z,43.30
2017-05-25T09:48:28.430Z,45.72
2017-05-25T09:49:33.359Z,45.81
2017-05-25T09:50:35.305Z,45.62
2017-05-25T09:51:37.304Z,44.57
2017-05-25T09:52:40.516Z,42.16
2017-05-25T09:53:42.803Z,43.41
2017-05-25T10:38:37.493Z,41.60
2017-05-25T10:39:39.261Z,39.95
2017-05-25T10:40:41.071Z,39.95
2017-05-25T10:41:43.288Z,40.34
2017-05-25T10:42:45.803Z,40.75
2017-05-25T10:43:48.174Z,40.46
2017-05-25T10:44:50.305Z,40.56
2017-05-25T10:45:52.315Z,40.28
2017-05-25T10:46:54.550Z,40.38
2017-05-25T10:47:56.459Z,40.84
2017-05-25T10:48:58.468Z,40.58
2017-05-25T10:50:00.434Z,41.93
2017-05-25T10:51:02.563Z,41.16
2017-05-25T10:52:04.512Z,40.67
2017-05-25T10:53:06.764Z,39.90
2017-05-25T10:54:09.048Z,38.46
2017-05-25T10:55:11.289Z,38.95
2017-05-25T10:57:00.758Z,40.01
2017-05-25T10:58:02.499Z,39.43
2017-05-25T10:59:04.525Z,37.49
2017-05-25T11:00:06.462Z,37.79
2017-05-25T11:01:08.789Z,38.66
2017-05-25T11:02:10.609Z,39.24
2017-05-25T11:03:12.535Z,38.37
2017-05-25T11:04:14.671Z,37.59
2017-05-25T11:05:16.807Z,38.27
2017-05-25T11:06:18.729Z,39.82
2017-05-25T11:07:20.610Z,38.66
2017-05-25T11:08:22.568Z,41.08
2017-05-25T11:09:24.439Z,41.56
2017-05-25T11:10:27.491Z,37.40
2017-05-25T11:11:29.388Z,38.95
2017-05-25T11:12:31.558Z,37.48
2017-05-25T11:13:33.810Z,38.46
2017-05-25T11:14:35.572Z,39.24
2017-05-25T11:15:37.968Z,38.46
2017-05-25T11:16:40.208Z,38.07
2017-05-25T11:17:42.446Z,37.49
2017-05-25T11:18:44.493Z,37.81
2017-05-25T11:19:46.385Z,36.62
2017-05-25T11:20:48.548Z,37.21
2017-05-25T11:21:50.489Z,36.52
2017-05-25T11:22:53.579Z,37.11
2017-05-25T11:23:55.838Z,37.69
2017-05-25T11:24:58.066Z,40.69
2017-05-25T11:25:59.989Z,37.49
2017-05-25T11:27:01.749Z,39.04
2017-05-25T11:28:03.939Z,37.88
2017-05-25T11:29:06.112Z,39.04
2017-05-25T11:30:08.168Z,38.73
2017-05-25T11:31:10.111Z,38.06
2017-05-25T11:32:12.146Z,37.96
2017-05-25T11:33:14.201Z,39.12
2017-05-25T11:34:16.078Z,39.62
2017-05-25T11:35:17.927Z,39.14
2017-05-25T11:36:19.879Z,41.56
2017-05-25T11:37:21.902Z,40.21
2017-05-25T11:38:24.282Z,40.23
2017-05-25T11:39:26.070Z,41.68
2017-05-25T11:40:28.478Z,38.78
2017-05-25T11:41:30.415Z,37.23
2017-05-25T11:42:32.606Z,37.61
2017-05-25T11:43:34.952Z,38.58
2017-05-25T11:44:36.844Z,40.03
2017-05-25T11:45:38.918Z,39.26
2017-05-25T11:46:41.127Z,38.29
2017-05-25T11:47:42.947Z,38.78
2017-05-25T11:48:44.786Z,39.34
2017-05-25T11:49:46.885Z,41.78
2017-05-25T11:50:48.984Z,38.96
2017-05-25T11:51:50.902Z,39.74
2017-05-25T11:52:53.037Z,41.20
2017-05-25T11:53:54.917Z,39.55
2017-05-25T11:54:56.945Z,39.86
2017-05-25T11:55:58.849Z,38.48
2017-05-25T11:57:01.251Z,37.24
2017-05-25T11:58:03.195Z,39.08
2017-05-25T11:59:05.446Z,37.32
2017-05-25T12:00:07.407Z,37.51
2017-05-25T12:01:09.375Z,38.48
2017-05-25T12:02:11.369Z,39.65
2017-05-25T12:03:13.246Z,39.06
2017-05-25T12:04:15.672Z,40.42
2017-05-25T12:05:17.426Z,37.32
2017-05-25T12:06:19.219Z,36.44
2017-05-25T12:07:20.986Z,37.23
2017-05-25T12:08:22.875Z,40.13
2017-05-25T12:09:24.801Z,38.39
2017-05-25T12:10:26.670Z,39.06
2017-05-25T12:11:28.784Z,39.06
2017-05-25T12:12:30.555Z,37.71
2017-05-25T12:13:32.469Z,38.60
2017-05-25T12:14:34.305Z,37.34
2017-05-25T12:15:36.219Z,37.40
2017-05-25T12:16:38.029Z,39.34
2017-05-25T12:17:39.881Z,38.17
2017-05-25T12:18:42.003Z,38.85
2017-05-25T12:19:44.133Z,40.21
2017-05-25T12:20:45.997Z,41.20
2017-05-25T12:21:47.793Z,38.19
2017-05-25T12:22:49.573Z,37.32
2017-05-25T12:23:51.451Z,38.68
2017-05-25T12:24:53.337Z,38.39
2017-05-25T12:25:55.464Z,39.65
2017-05-25T12:26:57.231Z,38.60
2017-05-25T12:27:59.080Z,39.08
2017-05-25T12:29:01.098Z,37.81
2017-05-25T12:30:02.846Z,37.90
2017-05-25T12:31:04.897Z,38.58
2017-05-25T12:32:06.679Z,39.47
2017-05-25T12:33:08.521Z,38.21
2017-05-25T12:34:10.573Z,37.05
2017-05-25T12:35:12.315Z,38.60
2017-05-25T12:36:13.992Z,39.28
2017-05-25T12:37:15.795Z,37.43
2017-05-25T12:38:17.572Z,37.43
2017-05-25T12:39:19.417Z,37.73
2017-05-25T12:40:21.528Z,37.53
2017-05-25T12:41:23.349Z,39.47
2017-05-25T12:42:25.473Z,37.63
2017-05-25T12:43:27.272Z,36.56
2017-05-25T12:44:29.016Z,37.43
2017-05-25T12:45:30.995Z,37.05
2017-05-25T12:46:33.020Z,39.28
2017-05-25T12:47:34.863Z,38.52
2017-05-25T12:48:36.680Z,37.24
2017-05-25T12:49:38.613Z,38.79
2017-05-25T12:50:40.486Z,40.17
2017-05-25T12:51:42.312Z,37.43
2017-05-25T12:52:44.278Z,37.43
2017-05-25T12:53:46.191Z,38.39
2017-05-25T12:54:48.267Z,39.65
2017-05-25T12:55:50.289Z,39.65
2017-05-25T12:56:52.290Z,39.84
2017-05-25T12:57:54.536Z,40.33
2017-05-25T12:58:56.693Z,39.84
2017-05-25T12:59:58.693Z,40.15
2017-05-25T13:01:00.555Z,40.64
2017-05-25T13:02:02.320Z,38.79
2017-05-25T13:03:04.167Z,37.73
2017-05-25T13:04:05.954Z,39.67
2017-05-25T13:05:07.787Z,38.48
2017-05-25T13:06:09.786Z,39.45
2017-05-25T13:07:11.522Z,38.87
2017-05-25T13:08:13.694Z,39.06
2017-05-25T13:09:15.842Z,38.39
2017-05-25T13:10:18.085Z,38.87
2017-05-25T13:11:19.917Z,39.67
2017-05-25T13:12:21.814Z,39.37
2017-05-25T13:13:23.515Z,38.40
2017-05-25T13:14:25.242Z,39.28
2017-05-25T13:15:27.143Z,38.60
2017-05-25T13:16:29.009Z,38.70
2017-05-25T13:17:31.021Z,37.53
2017-05-25T13:18:33.240Z,38.40
2017-05-25T13:19:35.045Z,42.19
2017-05-25T13:20:36.867Z,39.86
2017-05-25T13:21:38.618Z,38.99
2017-05-25T13:22:40.411Z,40.15
2017-05-25T13:23:42.169Z,40.54
2017-05-25T13:24:44.117Z,39.49
2017-05-25T13:25:45.867Z,40.56
2017-05-25T13:26:47.805Z,38.91
2017-05-25T13:27:49.606Z,37.63
2017-05-25T13:28:51.784Z,39.69
2017-05-25T13:29:53.639Z,40.05
2017-05-25T13:30:55.469Z,40.95
2017-05-25T13:31:57.342Z,39.78
2017-05-25T13:32:59.483Z,38.04
2017-05-25T13:34:01.651Z,37.24
2017-05-25T13:35:03.512Z,38.12
2017-05-25T13:36:05.381Z,38.02
2017-05-25T13:37:07.286Z,38.60
2017-05-25T13:38:09.021Z,37.92
2017-05-25T13:39:10.821Z,38.79
2017-05-25T13:40:12.673Z,37.53
2017-05-25T13:41:14.940Z,37.82
2017-05-25T13:42:16.617Z,39.47
2017-05-25T13:43:18.570Z,40.03
2017-05-25T13:44:20.449Z,39.55
2017-05-25T13:45:22.528Z,41.00
2017-05-25T13:46:24.386Z,41.70
2017-05-25T13:47:26.299Z,41.80
2017-05-25T13:48:28.133Z,39.76
2017-05-25T13:49:29.902Z,40.75
2017-05-25T13:50:31.930Z,39.67
2017-05-25T13:51:33.631Z,38.40
2017-05-25T13:52:35.576Z,37.34
2017-05-25T13:53:37.720Z,38.58
2017-05-25T13:54:39.508Z,39.36
2017-05-25T13:55:41.281Z,38.39
2017-05-25T13:56:43.188Z,38.58
2017-05-25T13:57:45.221Z,38.58
2017-05-25T13:58:47.322Z,39.55
2017-05-25T13:59:49.488Z,37.88
2017-05-25T14:00:51.268Z,38.85
2017-05-25T14:01:53.136Z,39.14
2017-05-25T14:02:54.955Z,40.89
2017-05-25T14:03:56.691Z,41.08
2017-05-25T14:04:58.553Z,40.33
2017-05-25T14:06:00.518Z,40.23
2017-05-25T14:07:02.377Z,38.76
2017-05-25T14:08:04.384Z,40.69
2017-05-25T14:09:06.592Z,41.10
2017-05-25T14:10:08.397Z,40.61
2017-05-25T14:11:10.255Z,39.45
2017-05-25T14:12:12.544Z,39.74
2017-05-25T14:13:14.234Z,39.06
2017-05-25T14:14:15.988Z,39.45
2017-05-25T14:15:17.826Z,41.20
2017-05-25T14:16:19.635Z,41.49
2017-05-25T14:17:21.478Z,42.26
2017-05-25T14:18:23.264Z,40.52
2017-05-25T14:19:25.331Z,40.23
2017-05-25T14:20:27.181Z,40.52
2017-05-25T14:21:29.112Z,39.45
2017-05-25T14:22:30.887Z,38.87
2017-05-25T14:23:32.696Z,38.68
2017-05-25T14:24:34.524Z,40.03
2017-05-25T14:25:36.615Z,39.65
2017-05-25T14:26:39.107Z,40.03
2017-05-25T14:27:41.004Z,40.13
2017-05-25T14:28:42.790Z,39.04
2017-05-25T14:29:44.940Z,39.24
2017-05-25T14:30:47.123Z,40.99
2017-05-25T14:31:49.234Z,40.50
2017-05-25T14:32:50.993Z,39.62
2017-05-25T14:33:52.784Z,40.00
2017-05-25T14:34:54.626Z,39.61
2017-05-25T14:35:56.538Z,39.41
2017-05-25T14:36:58.682Z,40.09
2017-05-25T14:38:00.805Z,40.38
2017-05-25T14:39:02.930Z,40.96
2017-05-25T14:40:04.686Z,41.16
2017-05-25T14:41:06.552Z,40.38
2017-05-25T14:42:08.323Z,39.80
2017-05-25T14:43:10.398Z,41.64
2017-05-25T14:44:12.584Z,42.03
2017-05-25T14:45:14.540Z,41.17
2017-05-25T14:46:16.336Z,40.69
2017-05-25T14:47:18.143Z,41.27
2017-05-25T14:48:20.074Z,41.00
2017-05-25T14:49:22.195Z,40.40
2017-05-25T14:50:23.879Z,41.20
2017-05-25T14:51:26.047Z,40.50
2017-05-25T14:52:28.004Z,38.76
2017-05-25T14:53:29.928Z,41.47
2017-05-25T14:54:31.791Z,40.59
2017-05-25T14:55:33.529Z,41.47
2017-05-25T14:56:35.670Z,40.40
2017-05-25T14:57:37.481Z,40.11
2017-05-25T14:58:39.642Z,39.43
2017-05-25T14:59:41.583Z,39.04
2017-05-25T15:00:43.455Z,39.62
2017-05-25T15:01:45.316Z,39.41
2017-05-25T15:02:47.132Z,40.48
2017-05-25T15:03:49.215Z,41.25
2017-05-25T15:04:51.079Z,40.50
2017-05-25T15:05:52.823Z,41.66
2017-05-25T15:06:54.724Z,39.92
2017-05-25T15:07:56.525Z,40.38
2017-05-25T15:49:02.166Z,50.64
2017-05-25T15:50:06.236Z,49.70
2017-05-25T16:16:25.577Z,44.89
2017-05-25T16:17:27.486Z,43.82
2017-05-25T16:18:29.422Z,44.60
2017-05-25T16:19:31.687Z,43.92
2017-05-25T16:20:33.643Z,44.40
2017-05-25T16:21:35.484Z,44.87
2017-05-25T16:22:38.070Z,44.89
2017-05-25T16:23:39.790Z,44.57
2017-05-25T16:24:41.598Z,44.38
2017-05-25T16:25:43.848Z,44.87
2017-05-25T16:26:45.961Z,44.87
2017-05-25T16:28:35.029Z,44.87
2017-05-25T16:29:37.182Z,44.19
2017-05-25T16:30:39.330Z,44.87
2017-05-25T16:31:41.859Z,44.38
2017-05-25T16:32:43.826Z,44.70
2017-05-25T16:34:29.901Z,44.89
2017-05-25T16:35:31.337Z,43.24
2017-05-25T16:36:33.219Z,44.12
2017-05-25T16:37:35.082Z,44.60
2017-05-25T16:38:37.406Z,44.70
2017-05-25T16:39:39.814Z,43.92
2017-05-25T16:40:41.993Z,43.73
2017-05-25T20:19:21.328Z,58.17
2017-05-25T20:20:23.550Z,57.98
2017-05-25T20:21:25.858Z,57.98
2017-05-25T20:23:10.727Z,57.79
2017-05-25T20:24:13.956Z,58.08
2017-05-25T20:25:15.890Z,58.05
2017-05-25T20:26:18.864Z,57.95
2017-05-25T20:27:20.855Z,57.86
2017-05-25T20:28:23.384Z,57.67
2017-05-25T20:29:25.176Z,58.24
2017-05-25T20:30:26.948Z,58.24
2017-05-25T20:31:29.067Z,58.05
2017-05-25T20:32:31.476Z,58.63
2017-05-25T20:33:33.505Z,58.63
2017-05-25T20:34:35.659Z,58.15
2017-05-25T20:35:37.580Z,58.05
2017-05-25T20:36:39.538Z,58.34
2017-05-25T20:37:41.701Z,58.72
2017-05-25T20:38:43.712Z,58.63
2017-05-25T20:39:46.462Z,58.53
2017-05-25T20:40:48.609Z,58.63
2017-05-25T20:41:51.330Z,58.72
2017-05-25T20:42:53.732Z,58.63
2017-05-25T20:43:55.637Z,58.53
2017-05-25T20:44:57.472Z,58.82
2017-05-25T20:45:59.476Z,58.82
2017-05-25T20:47:01.645Z,58.44
2017-05-25T20:48:03.572Z,58.63
2017-05-25T20:50:57.826Z,58.24
2017-05-25T20:51:59.855Z,58.53
2017-05-25T20:53:03.387Z,58.53
2017-05-25T20:54:05.303Z,58.72
2017-05-25T20:55:07.068Z,58.63
2017-05-25T20:56:09.529Z,58.53
2017-05-25T20:57:11.453Z,58.72
2017-05-25T20:58:14.073Z,58.82
2017-05-25T20:59:15.990Z,58.92
2017-05-25T21:00:18.010Z,59.01
2017-05-25T21:01:19.903Z,59.01
2017-05-25T21:02:22.477Z,58.92
2017-05-25T21:03:24.596Z,59.11
2017-05-25T21:04:26.913Z,59.20
2017-05-25T21:05:29.416Z,59.08
2017-05-25T21:06:31.290Z,59.40
2017-05-25T21:07:33.149Z,59.37
2017-05-25T21:08:34.978Z,59.56
